KCAK/CAK METAR and TAF weather

Enter ICAO airport designator
Station Type Date Time Source
KCAK METAR 2020/02/20 23:51 UTC NOAA

KCAK 202351Z 35007KT 10SM FEW037 M07/M14 A3051 RMK AO2 SLP352 60000 T10721139 11028 21072 53007


Station Type Date Time Source
KCAK Decoded METAR 2020/02/20 23:51 UTC NOAA

AKRON-CANTON REGIONAL AIRPORT , OH, United States (KCAK) 40-55N 081-27W 377M
Feb 20, 2020 - 06:51 PM EST / 2020.02.20 2351 UTC
Wind: from the N (350 degrees) at 8 MPH (7 KT):0
Visibility: 10 mile(s):0
Sky conditions: mostly clear
Temperature: 19.0 F (-7.2 C)
Windchill: 8 F (-13 C):1
Dew Point: 7.0 F (-13.9 C)
Relative Humidity: 58%
Pressure (altimeter): 30.51 in. Hg (1033 hPa)
Pressure tendency: 0.02 inches (0.7 hPa) higher than three hours ago
ob: KCAK 202351Z 35007KT 10SM FEW037 M07/M14 A3051 RMK AO2 SLP352 60000 T10721139 11028 21072 53007
cycle: 0

Station Type Date Time Source
KCAK TAF 2020/02/20 18:33 UTC NOAA

TAF KCAK 201730Z 2018/2118 34009KT P6SM BKN035
TEMPO 2018/2020 5SM -SHSN OVC028
FM202000 34010KT P6SM BKN040
TEMPO 2020/2022 6SM -SHSN
FM210100 26004KT P6SM SCT045

Example: see airport list